Terminal Aerodrome Forecast
Issued by NWS

Home | Current Version | Previous Version | Text Only | Print | Product List | Glossary On
Versions: 1 2 3 4 5 6 7 8 9 10 11 12 13 14 15 16 17 18
796
FTUS43 KDTX 271725
TAFDET
TAF
KDET 271725Z 2718/2818 28012G18KT P6SM BKN050
     FM272000 28012G17KT P6SM SCT060 SCT100
     FM280400 25004KT P6SM SKC
     FM281200 22011KT P6SM SCT250=

USA.gov is the U.S. government's official web portal to all federal, state and local government web resources and services.